createdAt,value
2022-12-15T00:04:34.196Z,10.35
2022-12-15T00:09:53.961Z,10.20
2022-12-15T00:15:14.062Z,11.35
2022-12-15T00:20:34.518Z,10.63
2022-12-15T00:25:54.283Z,12.75
2022-12-15T00:31:17.075Z,12.20
2022-12-15T00:36:36.920Z,11.73
2022-12-15T00:41:38.350Z,12.68
2022-12-15T00:46:54.692Z,12.15
2022-12-15T00:52:14.513Z,12.27
2022-12-15T00:57:34.301Z,11.30
2022-12-15T01:02:54.389Z,12.27
2022-12-15T01:08:14.530Z,11.60
2022-12-15T01:13:34.766Z,11.60
2022-12-15T01:18:54.521Z,13.07
2022-12-15T01:23:55.892Z,12.40
2022-12-15T01:28:57.278Z,12.38
2022-12-15T01:33:58.631Z,11.60
2022-12-15T01:39:01.046Z,11.55
2022-12-15T01:44:20.139Z,10.68
2022-12-15T01:49:25.532Z,11.00
2022-12-15T01:54:38.702Z,11.25
2022-12-15T01:59:48.771Z,11.05
2022-12-15T02:04:52.876Z,11.25
2022-12-15T02:09:58.107Z,11.32
2022-12-15T02:15:22.593Z,10.07
2022-12-15T02:20:42.889Z,11.13
2022-12-15T02:25:59.503Z,12.05
2022-12-15T02:31:27.730Z,12.23
2022-12-15T02:41:39.583Z,10.95
2022-12-15T02:46:56.592Z,11.63
2022-12-15T02:52:20.276Z,10.80
2022-12-15T02:57:35.232Z,11.55
2022-12-15T03:02:41.699Z,10.70
2022-12-15T03:07:43.205Z,10.65
2022-12-15T03:12:45.114Z,11.50
2022-12-15T03:17:46.584Z,10.07
2022-12-15T03:22:47.962Z,11.07
2022-12-15T03:27:49.406Z,10.63
2022-12-15T03:32:50.783Z,10.70
2022-12-15T03:37:53.228Z,11.85
2022-12-15T03:42:54.637Z,10.73
2022-12-15T03:47:56.969Z,11.25
2022-12-15T03:53:02.434Z,12.45
2022-12-15T03:58:03.817Z,11.35
2022-12-15T04:03:05.424Z,9.55
2022-12-15T04:08:06.984Z,10.48
2022-12-15T04:13:10.793Z,10.70
2022-12-15T04:18:12.165Z,11.68
2022-12-15T04:23:14.136Z,12.23
2022-12-15T04:28:33.869Z,11.35
2022-12-15T04:33:55.016Z,12.32
2022-12-15T04:39:16.133Z,10.85
2022-12-15T04:44:36.675Z,9.48
2022-12-15T04:49:56.553Z,10.05
2022-12-15T04:55:16.261Z,11.80
2022-12-15T05:00:36.154Z,10.43
2022-12-15T05:05:56.151Z,13.10
2022-12-15T05:11:18.737Z,11.07
2022-12-15T05:16:38.533Z,11.55
2022-12-15T05:21:58.261Z,10.73
2022-12-15T05:27:18.356Z,11.68
2022-12-15T05:32:19.715Z,11.30
2022-12-15T05:37:21.138Z,11.63
2022-12-15T05:42:22.489Z,12.00
2022-12-15T05:47:23.846Z,11.02
2022-12-15T05:52:25.299Z,12.15
2022-12-15T05:57:26.658Z,12.80
2022-12-15T06:02:31.098Z,12.98
2022-12-15T06:07:33.841Z,12.70
2022-12-15T06:12:35.203Z,12.45
2022-12-15T06:17:36.604Z,10.43
2022-12-15T06:22:38.004Z,11.55
2022-12-15T06:27:39.419Z,10.82
2022-12-15T06:32:40.800Z,13.55
2022-12-15T06:37:42.135Z,11.77
2022-12-15T06:42:43.508Z,13.98
2022-12-15T06:47:44.895Z,14.00
2022-12-15T06:52:46.340Z,9.65
2022-12-15T06:57:48.867Z,11.50
2022-12-15T07:02:50.882Z,13.43
2022-12-15T07:07:52.491Z,11.88
2022-12-15T07:12:56.646Z,14.05
2022-12-15T07:17:58.042Z,13.07
2022-12-15T07:23:00.618Z,13.95
2022-12-15T07:28:02.189Z,13.32
2022-12-15T07:33:04.730Z,12.52
2022-12-15T07:38:07.114Z,15.52
2022-12-15T07:43:08.476Z,14.32
2022-12-15T07:48:09.919Z,13.65
2022-12-15T07:53:11.290Z,11.48
2022-12-15T07:58:12.723Z,13.43
2022-12-15T08:03:14.196Z,12.63
2022-12-15T08:08:15.806Z,14.45
2022-12-15T08:13:52.881Z,13.75
2022-12-15T08:18:39.493Z,13.88
2022-12-15T08:23:41.256Z,13.68
2022-12-15T08:28:43.594Z,14.35
2022-12-15T08:33:46.383Z,14.77
2022-12-15T08:38:48.050Z,15.52
2022-12-15T08:43:50.965Z,17.08
2022-12-15T08:48:55.476Z,15.48
2022-12-15T08:54:00.375Z,14.82
2022-12-15T08:59:02.846Z,16.33
2022-12-15T09:04:04.318Z,15.05
2022-12-15T09:09:08.074Z,14.05
2022-12-15T09:14:09.443Z,13.75
2022-12-15T09:19:11.062Z,14.80
2022-12-15T09:24:22.137Z,13.18
2022-12-15T09:29:27.629Z,15.07
2022-12-15T09:34:29.075Z,15.80
2022-12-15T09:39:30.670Z,15.02
2022-12-15T09:44:32.944Z,15.93
2022-12-15T09:49:54.960Z,15.27
2022-12-15T09:54:58.233Z,15.45
2022-12-15T10:00:09.991Z,16.05
2022-12-15T10:05:20.640Z,15.43
2022-12-15T10:10:30.488Z,15.48
2022-12-15T10:15:45.462Z,14.60
2022-12-15T10:20:55.358Z,14.85
2022-12-15T10:26:16.274Z,16.13
2022-12-15T10:31:30.405Z,13.63
2022-12-15T10:36:31.845Z,13.30
2022-12-15T10:41:33.639Z,14.00
2022-12-15T10:46:35.092Z,13.90
2022-12-15T10:51:54.209Z,14.95
2022-12-15T10:56:57.112Z,15.27
2022-12-15T11:07:47.533Z,14.25
2022-12-15T11:13:17.389Z,16.02
2022-12-15T11:18:51.431Z,15.45
2022-12-15T11:24:16.454Z,16.83
2022-12-15T11:29:39.152Z,15.20
2022-12-15T11:34:45.961Z,16.42
2022-12-15T11:40:19.493Z,12.00
2022-12-15T11:45:31.442Z,15.82
2022-12-15T11:50:59.299Z,15.82
2022-12-15T11:56:28.386Z,16.95
2022-12-15T12:02:08.299Z,13.30
2022-12-15T12:07:42.006Z,13.57
2022-12-15T12:13:13.978Z,16.30
2022-12-15T12:18:46.551Z,13.98
2022-12-15T12:23:58.509Z,15.05
2022-12-15T12:29:13.051Z,15.10
2022-12-15T12:34:23.473Z,14.75
2022-12-15T12:39:25.859Z,16.67
2022-12-15T12:44:37.670Z,17.38
2022-12-15T12:49:56.376Z,15.32
2022-12-15T12:55:05.072Z,17.67
2022-12-15T13:00:20.318Z,18.55
2022-12-15T13:05:29.227Z,15.43
2022-12-15T13:10:38.742Z,16.30
2022-12-15T13:15:45.730Z,16.48
2022-12-15T13:20:57.162Z,15.43
2022-12-15T13:25:59.010Z,17.55
2022-12-15T13:31:24.381Z,15.77
2022-12-15T13:36:38.318Z,16.58
2022-12-15T13:42:15.138Z,15.73
2022-12-15T13:47:23.655Z,14.77
2022-12-15T13:53:16.710Z,15.27
2022-12-15T13:58:02.751Z,16.45
2022-12-15T14:03:06.917Z,16.00
2022-12-15T14:08:15.521Z,14.55
2022-12-15T14:13:36.998Z,15.45
2022-12-15T14:18:39.060Z,16.38
2022-12-15T14:24:10.902Z,17.75
2022-12-15T14:29:06.241Z,16.45
2022-12-15T14:34:29.825Z,15.85
2022-12-15T14:39:43.095Z,14.98
2022-12-15T14:44:49.738Z,15.57
2022-12-15T14:55:33.266Z,15.95
2022-12-15T15:00:48.519Z,14.82
2022-12-15T15:05:55.124Z,15.35
2022-12-15T15:11:00.827Z,14.43
2022-12-15T15:16:07.096Z,15.52
2022-12-15T15:21:17.111Z,15.65
2022-12-15T15:26:18.746Z,15.13
2022-12-15T15:31:40.917Z,16.52
2022-12-15T15:36:43.305Z,15.65
2022-12-15T15:41:44.674Z,17.30
2022-12-15T15:46:49.300Z,16.38
2022-12-15T15:51:50.683Z,17.35
2022-12-15T15:56:52.051Z,16.80
2022-12-15T16:01:55.745Z,16.70
2022-12-15T16:06:57.253Z,16.40
2022-12-15T16:11:59.395Z,16.48
2022-12-15T16:17:00.733Z,16.55
2022-12-15T16:22:02.462Z,15.98
2022-12-15T16:27:03.926Z,15.95
2022-12-15T16:32:06.102Z,16.15
2022-12-15T16:37:23.780Z,15.07
2022-12-15T16:42:25.194Z,16.42
2022-12-15T16:47:27.119Z,15.25
2022-12-15T16:52:28.506Z,16.30
2022-12-15T16:57:29.950Z,14.88
2022-12-15T17:02:31.596Z,15.38
2022-12-15T17:07:33.220Z,15.80
2022-12-15T17:12:34.748Z,17.38
2022-12-15T17:17:36.092Z,14.82
2022-12-15T17:22:37.756Z,15.30
2022-12-15T17:27:39.132Z,17.17
2022-12-15T17:32:40.534Z,18.90
2022-12-15T17:37:43.420Z,17.67
2022-12-15T17:42:46.157Z,15.38
2022-12-15T17:47:48.161Z,17.98
2022-12-15T17:52:49.798Z,16.67
2022-12-15T17:57:54.567Z,16.45
2022-12-15T18:02:57.446Z,14.50
2022-12-15T18:08:02.607Z,14.38
2022-12-15T18:13:15.015Z,13.98
2022-12-15T18:18:18.506Z,14.27
2022-12-15T18:23:22.226Z,15.00
2022-12-15T18:28:28.945Z,14.48
2022-12-15T18:33:30.892Z,9.73
2022-12-15T18:38:32.570Z,13.45
2022-12-15T18:43:35.196Z,16.55
2022-12-15T18:48:37.001Z,12.82
2022-12-15T18:53:41.005Z,13.70
2022-12-15T18:58:42.448Z,17.02
2022-12-15T19:03:43.841Z,13.95
2022-12-15T19:08:45.426Z,12.48
2022-12-15T19:13:46.830Z,11.48
2022-12-15T19:19:06.865Z,12.55
2022-12-15T19:24:14.922Z,11.95
2022-12-15T19:29:21.878Z,12.50
2022-12-15T19:34:26.217Z,11.03
2022-12-15T19:39:28.667Z,11.02
2022-12-15T19:44:30.735Z,10.57
2022-12-15T19:49:32.103Z,10.95
2022-12-15T19:54:33.459Z,10.23
2022-12-15T19:59:34.781Z,10.65
2022-12-15T20:04:36.212Z,13.00
2022-12-15T20:09:38.006Z,10.05
2022-12-15T20:14:39.518Z,10.77
2022-12-15T20:19:41.600Z,10.25
2022-12-15T20:24:44.436Z,12.63
2022-12-15T20:29:45.898Z,9.38
2022-12-15T20:34:47.582Z,8.85
2022-12-15T20:39:55.561Z,8.90
2022-12-15T20:44:58.669Z,8.98
2022-12-15T20:50:00.093Z,8.40
2022-12-15T20:55:02.926Z,10.55
2022-12-15T21:00:05.202Z,8.07
2022-12-15T21:05:07.825Z,7.93
2022-12-15T21:10:12.357Z,8.75
2022-12-15T21:15:22.126Z,8.23
2022-12-15T21:20:23.530Z,8.45
2022-12-15T21:25:26.669Z,9.13
2022-12-15T21:30:28.217Z,8.25
2022-12-15T21:35:31.894Z,7.28
2022-12-15T21:40:33.620Z,7.57
2022-12-15T21:45:34.979Z,7.95
2022-12-15T21:50:38.322Z,8.20
2022-12-15T21:55:41.032Z,7.25
2022-12-15T22:00:45.686Z,8.23
2022-12-15T22:05:47.318Z,7.38
2022-12-15T22:10:51.136Z,7.72
2022-12-15T22:15:54.668Z,6.50
2022-12-15T22:20:56.187Z,7.53
2022-12-15T22:25:57.684Z,7.20
2022-12-15T22:31:02.572Z,5.65
2022-12-15T22:36:04.174Z,6.50
2022-12-15T22:41:06.842Z,8.00
2022-12-15T22:46:12.451Z,8.15
2022-12-15T22:51:16.205Z,6.65
2022-12-15T22:56:39.269Z,7.35
2022-12-15T23:01:40.718Z,6.38
2022-12-15T23:06:42.231Z,5.15
2022-12-15T23:11:43.963Z,5.18
2022-12-15T23:16:46.288Z,5.13
2022-12-15T23:21:47.704Z,6.03
2022-12-15T23:26:49.112Z,5.38
2022-12-15T23:31:50.446Z,6.00
2022-12-15T23:36:52.065Z,5.80
2022-12-15T23:41:53.422Z,5.18
2022-12-15T23:46:57.265Z,5.05
2022-12-15T23:51:58.645Z,4.55
2022-12-15T23:57:00.017Z,3.83
